Terminal Aerodrome Forecast
Issued by NWS Shreveport, LA

Home | Current Version | Previous Version | Text Only | Print | Product List | Glossary On
Versions: 1 2 3 4 5 6 7 8 9 10 11 12 13 14 15
567
FTUS44 KSHV 241802 RRA
TAFSHV
TAF
KSHV 241802Z 2418/2518 16012KT P6SM FEW270
     FM242000 17010G18KT P6SM SCT270
     FM250000 18010KT P6SM SCT045 SCT270
     FM250400 17012KT P6SM SCT025 BKN050
     FM250600 19010KT P6SM OVC015
      TEMPO 2507/2509 5SM -DZ BKN007 OVC015
     FM250900 22007KT 4SM BR OVC007
     FM251600 29008KT P6SM OVC015=

USA.gov is the U.S. government's official web portal to all federal, state and local government web resources and services.